createdAt,value
2023-03-11T00:02:03.601Z,-17.63
2023-03-11T00:07:25.806Z,-17.84
2023-03-11T00:12:47.971Z,-17.93
2023-03-11T00:18:10.652Z,-18.25
2023-03-11T00:23:33.292Z,-17.91
2023-03-11T00:28:56.286Z,-18.03
2023-03-11T00:34:18.853Z,-18.25
2023-03-11T00:39:40.814Z,-18.35
2023-03-11T00:45:03.164Z,-18.52
2023-03-11T00:50:31.444Z,-18.62
2023-03-11T00:55:53.739Z,-18.60
2023-03-11T01:01:19.086Z,-18.62
2023-03-11T01:06:45.659Z,-18.87
2023-03-11T01:12:08.876Z,-18.87
2023-03-11T01:17:31.106Z,-18.52
2023-03-11T01:22:53.286Z,-18.85
2023-03-11T01:28:16.644Z,-18.88
2023-03-11T01:33:38.787Z,-19.16
2023-03-11T01:39:01.324Z,-19.11
2023-03-11T01:44:24.639Z,-19.34
2023-03-11T01:49:49.483Z,-19.33
2023-03-11T01:55:14.265Z,-19.29
2023-03-11T02:00:38.765Z,-19.05
2023-03-11T02:06:04.861Z,-19.47
2023-03-11T02:11:31.470Z,-19.65
2023-03-11T02:16:54.814Z,-19.13
2023-03-11T02:22:18.825Z,-19.45
2023-03-11T02:27:45.775Z,-19.62
2023-03-11T02:33:08.584Z,-19.75
2023-03-11T02:38:30.727Z,-19.95
2023-03-11T02:43:53.136Z,-20.10
2023-03-11T02:49:17.199Z,-20.13
2023-03-11T02:54:41.813Z,-20.09
2023-03-11T03:00:11.563Z,-20.23
2023-03-11T03:05:35.415Z,-20.42
2023-03-11T03:11:00.406Z,-20.37
2023-03-11T03:16:22.614Z,-20.51
2023-03-11T03:21:44.744Z,-20.55
2023-03-11T03:27:07.386Z,-20.68
2023-03-11T03:32:30.153Z,-20.55
2023-03-11T03:37:53.224Z,-20.51
2023-03-11T03:43:16.438Z,-20.70
2023-03-11T03:48:40.350Z,-20.71
2023-03-11T03:54:03.409Z,-20.60
2023-03-11T03:59:29.494Z,-20.64
2023-03-11T04:04:54.903Z,-20.73
2023-03-11T04:10:17.658Z,-20.54
2023-03-11T04:15:44.301Z,-20.51
2023-03-11T04:21:12.461Z,-20.16
2023-03-11T04:26:34.764Z,-20.06
2023-03-11T04:31:59.764Z,-19.98
2023-03-11T04:37:21.855Z,-19.52
2023-03-11T04:42:44.817Z,-19.23
2023-03-11T04:48:07.461Z,-18.73
2023-03-11T04:53:30.699Z,-18.29
2023-03-11T04:58:53.499Z,-17.73
2023-03-11T05:04:17.952Z,-17.54
2023-03-11T05:09:42.896Z,-17.17
2023-03-11T05:15:08.904Z,-16.77
2023-03-11T05:20:33.011Z,-16.33
2023-03-11T05:26:01.802Z,-15.81
2023-03-11T05:31:25.264Z,-15.44
2023-03-11T05:36:47.326Z,-14.96
2023-03-11T05:42:09.817Z,-14.25
2023-03-11T05:47:31.911Z,-13.80
2023-03-11T05:52:53.814Z,-13.44
2023-03-11T05:58:17.253Z,-12.94
2023-03-11T06:03:40.167Z,-12.47
2023-03-11T06:09:04.595Z,-11.92
2023-03-11T06:14:29.413Z,-11.52
2023-03-11T06:19:51.325Z,-10.64
2023-03-11T06:25:13.363Z,-9.50
2023-03-11T06:30:36.865Z,-8.73
2023-03-11T06:36:08.765Z,-7.85
2023-03-11T06:41:33.268Z,-7.45
2023-03-11T06:46:56.138Z,-7.25
2023-03-11T06:52:18.226Z,-7.07
2023-03-11T06:57:40.449Z,-6.74
2023-03-11T07:03:04.309Z,-6.27
2023-03-11T07:08:26.995Z,-5.93
2023-03-11T07:13:49.416Z,-5.71
2023-03-11T07:19:13.211Z,-5.43
2023-03-11T07:24:48.824Z,-5.25
2023-03-11T07:30:13.391Z,-5.23
2023-03-11T07:35:36.525Z,-4.95
2023-03-11T07:41:00.391Z,-4.89
2023-03-11T07:46:24.352Z,-5.05
2023-03-11T07:51:46.616Z,-4.97
2023-03-11T07:57:09.867Z,-4.80
2023-03-11T08:02:35.148Z,-4.78
2023-03-11T08:07:57.422Z,-4.59
2023-03-11T08:13:21.165Z,-4.40
2023-03-11T08:18:44.031Z,-4.24
2023-03-11T08:24:17.024Z,-4.10
2023-03-11T08:29:45.253Z,-3.89
2023-03-11T08:35:07.203Z,-3.71
2023-03-11T08:40:29.234Z,-3.60
2023-03-11T08:45:50.797Z,-3.51
2023-03-11T08:51:13.802Z,-3.45
2023-03-11T08:56:35.778Z,-3.46
2023-03-11T09:01:57.712Z,-3.35
2023-03-11T09:07:19.889Z,-3.08
2023-03-11T09:12:42.156Z,-3.15
2023-03-11T09:18:04.621Z,-3.05
2023-03-11T09:23:26.733Z,-2.96
2023-03-11T09:28:49.664Z,-3.08
2023-03-11T09:34:16.051Z,-3.09
2023-03-11T09:39:41.880Z,-2.77
2023-03-11T09:45:19.089Z,-2.50
2023-03-11T09:51:11.237Z,-2.48
2023-03-11T09:56:36.132Z,-2.63
2023-03-11T10:01:59.378Z,-2.63
2023-03-11T10:07:48.079Z,-2.85
2023-03-11T10:13:27.978Z,-2.79
2023-03-11T10:19:01.009Z,-2.98
2023-03-11T10:24:34.617Z,-3.17
2023-03-11T10:30:28.381Z,-3.22
2023-03-11T10:35:56.183Z,-3.27
2023-03-11T10:41:33.305Z,-3.14
2023-03-11T10:46:55.069Z,-3.27
2023-03-11T10:52:17.153Z,-3.46
2023-03-11T10:57:40.350Z,-3.20
2023-03-11T11:03:05.070Z,-3.20
2023-03-11T11:08:27.307Z,-3.10
2023-03-11T11:14:00.683Z,-3.27
2023-03-11T11:19:23.635Z,-3.35
2023-03-11T11:24:47.562Z,-3.43
2023-03-11T11:30:09.467Z,-3.15
2023-03-11T11:35:31.817Z,-3.18
2023-03-11T11:40:55.866Z,-3.32
2023-03-11T11:46:25.844Z,-3.09
2023-03-11T11:52:01.275Z,-3.26
2023-03-11T11:57:25.032Z,-3.06
2023-03-11T12:03:05.405Z,-3.02
2023-03-11T12:08:45.164Z,-2.99
2023-03-11T12:14:33.101Z,-3.04
2023-03-11T12:20:03.075Z,-3.18
2023-03-11T12:25:33.210Z,-3.04
2023-03-11T12:30:59.524Z,-3.20
2023-03-11T12:36:31.070Z,-3.35
2023-03-11T12:42:14.675Z,-3.04
2023-03-11T12:47:36.988Z,-3.18
2023-03-11T12:52:58.683Z,-3.19
2023-03-11T12:58:48.770Z,-3.17
2023-03-11T13:04:40.359Z,-3.22
2023-03-11T13:10:08.357Z,-3.13
2023-03-11T13:15:35.837Z,-3.42
2023-03-11T13:21:02.417Z,-3.38
2023-03-11T13:26:33.707Z,-3.32
2023-03-11T13:32:12.632Z,-3.25
2023-03-11T13:38:02.106Z,-3.20
2023-03-11T13:43:26.286Z,-3.27
2023-03-11T13:48:51.489Z,-3.18
2023-03-11T13:54:33.300Z,-3.25
2023-03-11T13:59:57.137Z,-3.30
2023-03-11T14:05:30.601Z,-3.48
2023-03-11T14:11:02.092Z,-3.53
2023-03-11T14:16:35.573Z,-3.73
2023-03-11T14:21:57.178Z,-3.86
2023-03-11T14:27:19.380Z,-3.94
2023-03-11T14:32:40.835Z,-3.93
2023-03-11T14:38:02.846Z,-4.05
2023-03-11T14:43:25.798Z,-4.06
2023-03-11T14:48:48.034Z,-4.09
2023-03-11T14:54:18.813Z,-4.17
2023-03-11T14:59:42.111Z,-4.25
2023-03-11T15:05:15.499Z,-3.95
2023-03-11T15:10:37.669Z,-4.05
2023-03-11T15:16:01.024Z,-4.06
2023-03-11T15:21:25.470Z,-4.10
2023-03-11T15:27:09.488Z,-4.14
2023-03-11T15:32:31.421Z,-4.03
2023-03-11T15:38:23.965Z,-3.96
2023-03-11T15:43:49.469Z,-3.90
2023-03-11T15:49:14.287Z,-3.89
2023-03-11T15:54:36.771Z,-3.94
2023-03-11T16:00:02.511Z,-3.87
2023-03-11T16:05:29.504Z,-3.92
2023-03-11T16:10:51.265Z,-3.89
2023-03-11T16:16:18.029Z,-3.80
2023-03-11T16:21:50.760Z,-3.84
2023-03-11T16:32:59.492Z,-3.78
2023-03-11T16:38:30.017Z,-3.94
2023-03-11T16:43:52.270Z,-3.86
2023-03-11T16:49:21.836Z,-3.95
2023-03-11T16:54:46.578Z,-3.92
2023-03-11T17:00:11.858Z,-3.77
2023-03-11T17:05:34.406Z,-3.90
2023-03-11T17:10:56.645Z,-3.83
2023-03-11T17:16:19.085Z,-3.87
2023-03-11T17:21:41.533Z,-3.79
2023-03-11T17:27:04.273Z,-3.82
2023-03-11T17:32:26.496Z,-3.65
2023-03-11T17:37:48.634Z,-3.72
2023-03-11T17:43:10.686Z,-3.77
2023-03-11T17:48:32.989Z,-3.77
2023-03-11T17:53:56.244Z,-3.61
2023-03-11T17:59:18.560Z,-3.63
2023-03-11T18:04:42.549Z,-3.68
2023-03-11T18:10:04.986Z,-3.67
2023-03-11T18:15:27.073Z,-3.63
2023-03-11T18:20:49.258Z,-3.69
2023-03-11T18:26:45.376Z,-3.50
2023-03-11T18:32:07.551Z,-3.57
2023-03-11T18:37:29.980Z,-3.53
2023-03-11T18:42:55.678Z,-3.38
2023-03-11T18:48:17.974Z,-3.54
2023-03-11T18:53:42.392Z,-3.43
2023-03-11T18:59:05.143Z,-3.39
2023-03-11T19:04:29.168Z,-3.38
2023-03-11T19:09:53.623Z,-3.34
2023-03-11T19:15:19.920Z,-3.19
2023-03-11T19:20:42.572Z,-3.23
2023-03-11T19:26:05.692Z,-3.15
2023-03-11T19:31:30.951Z,-3.08
2023-03-11T19:36:53.108Z,-3.10
2023-03-11T19:42:15.354Z,-3.17
2023-03-11T19:47:39.118Z,-3.18
2023-03-11T19:53:04.494Z,-3.19
2023-03-11T19:58:30.427Z,-3.22
2023-03-11T20:03:53.385Z,-3.11
2023-03-11T20:09:17.375Z,-3.04
2023-03-11T20:14:40.807Z,-3.07
2023-03-11T20:20:05.196Z,-3.11
2023-03-11T20:25:30.236Z,-2.96
2023-03-11T20:30:52.544Z,-3.09
2023-03-11T20:36:27.089Z,-2.99
2023-03-11T20:41:49.161Z,-3.09
2023-03-11T20:47:11.969Z,-3.05
2023-03-11T20:52:36.328Z,-2.82
2023-03-11T20:57:58.462Z,-2.96
2023-03-11T21:03:20.286Z,-3.01
2023-03-11T21:08:44.947Z,-2.97
2023-03-11T21:14:07.776Z,-2.62
2023-03-11T21:19:29.785Z,-2.69
2023-03-11T21:24:55.917Z,-2.91
2023-03-11T21:30:18.514Z,-2.77
2023-03-11T21:35:40.821Z,-2.51
2023-03-11T21:41:10.930Z,-2.43
2023-03-11T21:46:33.970Z,-2.38
2023-03-11T21:51:55.951Z,-2.40
2023-03-11T21:57:18.028Z,-2.40
2023-03-11T22:02:40.065Z,-2.39
2023-03-11T22:08:02.399Z,-2.36
2023-03-11T22:13:25.859Z,-2.27
2023-03-11T22:18:48.294Z,-2.26
2023-03-11T22:24:10.850Z,-2.25
2023-03-11T22:29:33.134Z,-2.18
2023-03-11T22:34:55.878Z,-2.29
2023-03-11T22:40:22.707Z,-2.27
2023-03-11T22:45:47.832Z,-2.10
2023-03-11T22:51:10.050Z,-2.20
2023-03-11T22:56:32.662Z,-2.03
2023-03-11T23:01:54.966Z,-2.08
2023-03-11T23:07:17.428Z,-2.01
2023-03-11T23:12:39.729Z,-1.92
2023-03-11T23:18:04.863Z,-1.86
2023-03-11T23:23:27.463Z,-1.91
2023-03-11T23:28:54.341Z,-1.73
2023-03-11T23:34:16.709Z,-1.80
2023-03-11T23:39:39.471Z,-1.56
2023-03-11T23:45:02.268Z,-1.63
2023-03-11T23:50:24.782Z,-1.57
2023-03-11T23:55:47.138Z,-1.46
